<?xml version="1.0" encoding="UTF-8" standalone="no" ?>
<gpx xmlns="http://www.topografix.com/GPX/1/1" xmlns:xsi="http://www.w3.org/2001/XMLSchema-instance" xsi:schemaLocation="http://www.topografix.com/GPX/1/1 http://www.topografix.com/GPX/1/1/gpx.xsd" version="1.1" creator="VisuGPX - https://www.visugpx.com">
  <metadata>
    <name>Venise-Pamir J9 - Bosnie</name>
    <desc><![CDATA[Route superbe et très tranquille jusqu'à Livno,
plus de circulation après]]></desc>
  </metadata>
  <trk>
    <name><![CDATA[Venise-Pamir J9 - Bosnie_1]]></name>
    <trkseg>
      <trkpt lat="44.17247" lon="16.3685">
        <ele>842.7</ele>
        <time>2018-06-10T05:27:46.000Z</time>
      </trkpt>
      <trkpt lat="44.17372" lon="16.36772">
        <ele>849.8</ele>
        <time>2018-06-10T05:45:05.000Z</time>
      </trkpt>
      <trkpt lat="44.17545" lon="16.36637">
        <ele>831.9</ele>
        <time>2018-06-10T05:46:36.000Z</time>
      </trkpt>
      <trkpt lat="44.1769" lon="16.36546">
        <ele>823.4</ele>
        <time>2018-06-10T05:48:07.000Z</time>
      </trkpt>
      <trkpt lat="44.17884" lon="16.36476">
        <ele>845.5</ele>
        <time>2018-06-10T05:49:38.000Z</time>
      </trkpt>
      <trkpt lat="44.17751" lon="16.36517">
        <ele>865.5</ele>
        <time>2018-06-10T06:30:24.000Z</time>
      </trkpt>
      <trkpt lat="44.17429" lon="16.37117">
        <ele>850.6</ele>
        <time>2018-06-10T06:31:55.000Z</time>
      </trkpt>
      <trkpt lat="44.1719" lon="16.37336">
        <ele>827</ele>
        <time>2018-06-10T06:33:26.000Z</time>
      </trkpt>
      <trkpt lat="44.16679" lon="16.37705">
        <ele>822</ele>
        <time>2018-06-10T06:34:57.000Z</time>
      </trkpt>
      <trkpt lat="44.16225" lon="16.38327">
        <ele>801.2</ele>
        <time>2018-06-10T06:36:28.000Z</time>
      </trkpt>
      <trkpt lat="44.15991" lon="16.38969">
        <ele>801.4</ele>
        <time>2018-06-10T06:37:59.000Z</time>
      </trkpt>
      <trkpt lat="44.15853" lon="16.39715">
        <ele>801.6</ele>
        <time>2018-06-10T06:39:30.000Z</time>
      </trkpt>
      <trkpt lat="44.15855" lon="16.40233">
        <ele>806.6</ele>
        <time>2018-06-10T06:41:01.000Z</time>
      </trkpt>
      <trkpt lat="44.15757" lon="16.40734">
        <ele>815.4</ele>
        <time>2018-06-10T06:42:32.000Z</time>
      </trkpt>
      <trkpt lat="44.15826" lon="16.41123">
        <ele>821.3</ele>
        <time>2018-06-10T06:44:03.000Z</time>
      </trkpt>
      <trkpt lat="44.15832" lon="16.41671">
        <ele>825.6</ele>
        <time>2018-06-10T06:45:34.000Z</time>
      </trkpt>
      <trkpt lat="44.15933" lon="16.42113">
        <ele>827.5</ele>
        <time>2018-06-10T06:47:05.000Z</time>
      </trkpt>
      <trkpt lat="44.15943" lon="16.42305">
        <ele>829.3</ele>
        <time>2018-06-10T06:51:34.000Z</time>
      </trkpt>
      <trkpt lat="44.15632" lon="16.43101">
        <ele>825.5</ele>
        <time>2018-06-10T06:53:05.000Z</time>
      </trkpt>
      <trkpt lat="44.15303" lon="16.43733">
        <ele>822.6</ele>
        <time>2018-06-10T06:54:36.000Z</time>
      </trkpt>
      <trkpt lat="44.14949" lon="16.44287">
        <ele>827.1</ele>
        <time>2018-06-10T06:56:07.000Z</time>
      </trkpt>
      <trkpt lat="44.1481" lon="16.45122">
        <ele>819.4</ele>
        <time>2018-06-10T06:57:38.000Z</time>
      </trkpt>
      <trkpt lat="44.14542" lon="16.45916">
        <ele>814.3</ele>
        <time>2018-06-10T06:59:09.000Z</time>
      </trkpt>
      <trkpt lat="44.14246" lon="16.46576">
        <ele>813.2</ele>
        <time>2018-06-10T07:00:40.000Z</time>
      </trkpt>
      <trkpt lat="44.13901" lon="16.47193">
        <ele>808.2</ele>
        <time>2018-06-10T07:02:11.000Z</time>
      </trkpt>
      <trkpt lat="44.13534" lon="16.4763">
        <ele>812.2</ele>
        <time>2018-06-10T07:03:42.000Z</time>
      </trkpt>
      <trkpt lat="44.13171" lon="16.48178">
        <ele>806.4</ele>
        <time>2018-06-10T07:05:13.000Z</time>
      </trkpt>
      <trkpt lat="44.13136" lon="16.48815">
        <ele>809.6</ele>
        <time>2018-06-10T07:06:44.000Z</time>
      </trkpt>
      <trkpt lat="44.13042" lon="16.4923">
        <ele>819.3</ele>
        <time>2018-06-10T07:08:15.000Z</time>
      </trkpt>
      <trkpt lat="44.12966" lon="16.49439">
        <ele>835.6</ele>
        <time>2018-06-10T07:09:45.000Z</time>
      </trkpt>
      <trkpt lat="44.12895" lon="16.49725">
        <ele>846.4</ele>
        <time>2018-06-10T07:11:16.000Z</time>
      </trkpt>
      <trkpt lat="44.12988" lon="16.50152">
        <ele>850.1</ele>
        <time>2018-06-10T07:12:47.000Z</time>
      </trkpt>
      <trkpt lat="44.12988" lon="16.51278">
        <ele>816</ele>
        <time>2018-06-10T07:14:18.000Z</time>
      </trkpt>
      <trkpt lat="44.12767" lon="16.51607">
        <ele>829</ele>
        <time>2018-06-10T07:15:49.000Z</time>
      </trkpt>
      <trkpt lat="44.12651" lon="16.51932">
        <ele>838.3</ele>
        <time>2018-06-10T07:17:20.000Z</time>
      </trkpt>
      <trkpt lat="44.12503" lon="16.52341">
        <ele>844.5</ele>
        <time>2018-06-10T07:18:51.000Z</time>
      </trkpt>
      <trkpt lat="44.12421" lon="16.52593">
        <ele>858.8</ele>
        <time>2018-06-10T07:20:22.000Z</time>
      </trkpt>
      <trkpt lat="44.12334" lon="16.52833">
        <ele>867.4</ele>
        <time>2018-06-10T07:21:53.000Z</time>
      </trkpt>
      <trkpt lat="44.12177" lon="16.53108">
        <ele>874.8</ele>
        <time>2018-06-10T07:23:24.000Z</time>
      </trkpt>
      <trkpt lat="44.12051" lon="16.53367">
        <ele>878.5</ele>
        <time>2018-06-10T07:24:55.000Z</time>
      </trkpt>
      <trkpt lat="44.11918" lon="16.53573">
        <ele>879.7</ele>
        <time>2018-06-10T07:26:26.000Z</time>
      </trkpt>
      <trkpt lat="44.11337" lon="16.5402">
        <ele>862.1</ele>
        <time>2018-06-10T07:27:57.000Z</time>
      </trkpt>
      <trkpt lat="44.10751" lon="16.54864">
        <ele>837.6</ele>
        <time>2018-06-10T07:29:28.000Z</time>
      </trkpt>
      <trkpt lat="44.09908" lon="16.55376">
        <ele>802.1</ele>
        <time>2018-06-10T07:30:59.000Z</time>
      </trkpt>
      <trkpt lat="44.09259" lon="16.56212">
        <ele>769.2</ele>
        <time>2018-06-10T07:32:30.000Z</time>
      </trkpt>
      <trkpt lat="44.08566" lon="16.56842">
        <ele>753.1</ele>
        <time>2018-06-10T07:34:01.000Z</time>
      </trkpt>
      <trkpt lat="44.07958" lon="16.57075">
        <ele>748.7</ele>
        <time>2018-06-10T07:35:31.000Z</time>
      </trkpt>
      <trkpt lat="44.07229" lon="16.57489">
        <ele>707.6</ele>
        <time>2018-06-10T07:37:02.000Z</time>
      </trkpt>
      <trkpt lat="44.06696" lon="16.57847">
        <ele>710.5</ele>
        <time>2018-06-10T07:38:33.000Z</time>
      </trkpt>
      <trkpt lat="44.06372" lon="16.58092">
        <ele>718.8</ele>
        <time>2018-06-10T07:40:03.000Z</time>
      </trkpt>
      <trkpt lat="44.06055" lon="16.58334">
        <ele>724.4</ele>
        <time>2018-06-10T07:41:34.000Z</time>
      </trkpt>
      <trkpt lat="44.05505" lon="16.58511">
        <ele>724.4</ele>
        <time>2018-06-10T07:43:04.000Z</time>
      </trkpt>
      <trkpt lat="44.04917" lon="16.58772">
        <ele>711.2</ele>
        <time>2018-06-10T07:44:35.000Z</time>
      </trkpt>
      <trkpt lat="44.04476" lon="16.58949">
        <ele>717.4</ele>
        <time>2018-06-10T07:46:06.000Z</time>
      </trkpt>
      <trkpt lat="44.04205" lon="16.59096">
        <ele>721.9</ele>
        <time>2018-06-10T07:47:36.000Z</time>
      </trkpt>
      <trkpt lat="44.0384" lon="16.59363">
        <ele>723.9</ele>
        <time>2018-06-10T07:49:07.000Z</time>
      </trkpt>
      <trkpt lat="44.03447" lon="16.59553">
        <ele>732.5</ele>
        <time>2018-06-10T07:50:38.000Z</time>
      </trkpt>
      <trkpt lat="44.0303" lon="16.5961">
        <ele>730.2</ele>
        <time>2018-06-10T07:52:09.000Z</time>
      </trkpt>
      <trkpt lat="44.02564" lon="16.5977">
        <ele>729.1</ele>
        <time>2018-06-10T07:53:40.000Z</time>
      </trkpt>
      <trkpt lat="44.02166" lon="16.59939">
        <ele>727.5</ele>
        <time>2018-06-10T07:55:11.000Z</time>
      </trkpt>
      <trkpt lat="44.01627" lon="16.60191">
        <ele>719.8</ele>
        <time>2018-06-10T07:56:42.000Z</time>
      </trkpt>
      <trkpt lat="44.01108" lon="16.60334">
        <ele>719</ele>
        <time>2018-06-10T07:58:13.000Z</time>
      </trkpt>
      <trkpt lat="44.00604" lon="16.60469">
        <ele>713.7</ele>
        <time>2018-06-10T07:59:44.000Z</time>
      </trkpt>
      <trkpt lat="44.00196" lon="16.60807">
        <ele>715.7</ele>
        <time>2018-06-10T08:01:15.000Z</time>
      </trkpt>
      <trkpt lat="43.99834" lon="16.61121">
        <ele>714.6</ele>
        <time>2018-06-10T08:02:46.000Z</time>
      </trkpt>
      <trkpt lat="43.99466" lon="16.61655">
        <ele>709</ele>
        <time>2018-06-10T08:04:17.000Z</time>
      </trkpt>
      <trkpt lat="43.99179" lon="16.61954">
        <ele>717.3</ele>
        <time>2018-06-10T08:05:48.000Z</time>
      </trkpt>
      <trkpt lat="43.99067" lon="16.62063">
        <ele>718.3</ele>
        <time>2018-06-10T08:18:15.000Z</time>
      </trkpt>
      <trkpt lat="43.98872" lon="16.6243">
        <ele>719.1</ele>
        <time>2018-06-10T08:19:15.000Z</time>
      </trkpt>
      <trkpt lat="43.98758" lon="16.62847">
        <ele>720.3</ele>
        <time>2018-06-10T08:20:16.000Z</time>
      </trkpt>
      <trkpt lat="43.98611" lon="16.63138">
        <ele>720.6</ele>
        <time>2018-06-10T08:21:17.000Z</time>
      </trkpt>
      <trkpt lat="43.98394" lon="16.63655">
        <ele>715</ele>
        <time>2018-06-10T08:22:18.000Z</time>
      </trkpt>
      <trkpt lat="43.98176" lon="16.64068">
        <ele>713.4</ele>
        <time>2018-06-10T08:23:19.000Z</time>
      </trkpt>
      <trkpt lat="43.98204" lon="16.64631">
        <ele>718.8</ele>
        <time>2018-06-10T08:24:20.000Z</time>
      </trkpt>
      <trkpt lat="43.98239" lon="16.65174">
        <ele>718.9</ele>
        <time>2018-06-10T08:25:20.000Z</time>
      </trkpt>
      <trkpt lat="43.98269" lon="16.65695">
        <ele>712.9</ele>
        <time>2018-06-10T08:26:20.000Z</time>
      </trkpt>
      <trkpt lat="43.98302" lon="16.6623">
        <ele>711.1</ele>
        <time>2018-06-10T08:27:21.000Z</time>
      </trkpt>
      <trkpt lat="43.98336" lon="16.66747">
        <ele>710.8</ele>
        <time>2018-06-10T08:28:22.000Z</time>
      </trkpt>
      <trkpt lat="43.98366" lon="16.67259">
        <ele>708.3</ele>
        <time>2018-06-10T08:29:22.000Z</time>
      </trkpt>
      <trkpt lat="43.98399" lon="16.67747">
        <ele>709.1</ele>
        <time>2018-06-10T08:30:23.000Z</time>
      </trkpt>
      <trkpt lat="43.98432" lon="16.6825">
        <ele>708.5</ele>
        <time>2018-06-10T08:31:24.000Z</time>
      </trkpt>
      <trkpt lat="43.98442" lon="16.68761">
        <ele>710.3</ele>
        <time>2018-06-10T08:32:25.000Z</time>
      </trkpt>
      <trkpt lat="43.98375" lon="16.69236">
        <ele>711.1</ele>
        <time>2018-06-10T08:33:25.000Z</time>
      </trkpt>
      <trkpt lat="43.9823" lon="16.697">
        <ele>709</ele>
        <time>2018-06-10T08:34:26.000Z</time>
      </trkpt>
      <trkpt lat="43.98045" lon="16.70135">
        <ele>709.2</ele>
        <time>2018-06-10T08:35:27.000Z</time>
      </trkpt>
      <trkpt lat="43.97859" lon="16.70575">
        <ele>707.4</ele>
        <time>2018-06-10T08:36:28.000Z</time>
      </trkpt>
      <trkpt lat="43.97677" lon="16.71004">
        <ele>707.7</ele>
        <time>2018-06-10T08:37:29.000Z</time>
      </trkpt>
      <trkpt lat="43.97493" lon="16.71439">
        <ele>710.1</ele>
        <time>2018-06-10T08:38:29.000Z</time>
      </trkpt>
      <trkpt lat="43.97307" lon="16.7188">
        <ele>711.6</ele>
        <time>2018-06-10T08:39:30.000Z</time>
      </trkpt>
      <trkpt lat="43.97102" lon="16.72359">
        <ele>707.9</ele>
        <time>2018-06-10T08:40:31.000Z</time>
      </trkpt>
      <trkpt lat="43.9691" lon="16.72813">
        <ele>709.4</ele>
        <time>2018-06-10T08:41:32.000Z</time>
      </trkpt>
      <trkpt lat="43.96715" lon="16.7327">
        <ele>710.2</ele>
        <time>2018-06-10T08:42:32.000Z</time>
      </trkpt>
      <trkpt lat="43.96533" lon="16.73687">
        <ele>710.8</ele>
        <time>2018-06-10T08:43:33.000Z</time>
      </trkpt>
      <trkpt lat="43.96193" lon="16.73834">
        <ele>712.2</ele>
        <time>2018-06-10T08:44:33.000Z</time>
      </trkpt>
      <trkpt lat="43.95851" lon="16.74097">
        <ele>713.5</ele>
        <time>2018-06-10T08:45:34.000Z</time>
      </trkpt>
      <trkpt lat="43.95532" lon="16.74336">
        <ele>715.5</ele>
        <time>2018-06-10T08:46:34.000Z</time>
      </trkpt>
      <trkpt lat="43.95364" lon="16.74423">
        <ele>721.7</ele>
        <time>2018-06-10T08:47:35.000Z</time>
      </trkpt>
      <trkpt lat="43.95231" lon="16.74504">
        <ele>728.3</ele>
        <time>2018-06-10T08:48:35.000Z</time>
      </trkpt>
      <trkpt lat="43.95106" lon="16.74617">
        <ele>734.5</ele>
        <time>2018-06-10T08:49:36.000Z</time>
      </trkpt>
      <trkpt lat="43.94984" lon="16.74731">
        <ele>740.8</ele>
        <time>2018-06-10T08:50:37.000Z</time>
      </trkpt>
      <trkpt lat="43.94865" lon="16.74824">
        <ele>747.5</ele>
        <time>2018-06-10T08:53:09.000Z</time>
      </trkpt>
      <trkpt lat="43.9473" lon="16.7497">
        <ele>750.9</ele>
        <time>2018-06-10T08:54:10.000Z</time>
      </trkpt>
      <trkpt lat="43.94596" lon="16.75018">
        <ele>747.8</ele>
        <time>2018-06-10T09:06:56.000Z</time>
      </trkpt>
      <trkpt lat="43.94119" lon="16.75464">
        <ele>724.7</ele>
        <time>2018-06-10T09:07:56.000Z</time>
      </trkpt>
      <trkpt lat="43.93763" lon="16.75967">
        <ele>722</ele>
        <time>2018-06-10T09:08:57.000Z</time>
      </trkpt>
      <trkpt lat="43.93447" lon="16.76417">
        <ele>713.3</ele>
        <time>2018-06-10T09:09:58.000Z</time>
      </trkpt>
      <trkpt lat="43.93227" lon="16.76801">
        <ele>719.3</ele>
        <time>2018-06-10T09:10:59.000Z</time>
      </trkpt>
      <trkpt lat="43.92966" lon="16.77233">
        <ele>716.3</ele>
        <time>2018-06-10T09:12:00.000Z</time>
      </trkpt>
      <trkpt lat="43.92678" lon="16.77604">
        <ele>718.3</ele>
        <time>2018-06-10T09:13:00.000Z</time>
      </trkpt>
      <trkpt lat="43.92401" lon="16.77912">
        <ele>723.4</ele>
        <time>2018-06-10T09:14:01.000Z</time>
      </trkpt>
      <trkpt lat="43.92151" lon="16.78314">
        <ele>721.1</ele>
        <time>2018-06-10T09:15:02.000Z</time>
      </trkpt>
      <trkpt lat="43.91887" lon="16.78815">
        <ele>713.3</ele>
        <time>2018-06-10T09:16:03.000Z</time>
      </trkpt>
      <trkpt lat="43.91638" lon="16.79234">
        <ele>713.6</ele>
        <time>2018-06-10T09:17:03.000Z</time>
      </trkpt>
      <trkpt lat="43.91352" lon="16.79605">
        <ele>712.6</ele>
        <time>2018-06-10T09:18:04.000Z</time>
      </trkpt>
      <trkpt lat="43.91108" lon="16.79918">
        <ele>710.4</ele>
        <time>2018-06-10T09:19:05.000Z</time>
      </trkpt>
      <trkpt lat="43.9083" lon="16.80273">
        <ele>712.7</ele>
        <time>2018-06-10T09:20:06.000Z</time>
      </trkpt>
      <trkpt lat="43.90576" lon="16.80588">
        <ele>715.2</ele>
        <time>2018-06-10T09:21:07.000Z</time>
      </trkpt>
      <trkpt lat="43.90425" lon="16.80724">
        <ele>724.3</ele>
        <time>2018-06-10T09:22:08.000Z</time>
      </trkpt>
      <trkpt lat="43.90204" lon="16.81024">
        <ele>721</ele>
        <time>2018-06-10T09:23:09.000Z</time>
      </trkpt>
      <trkpt lat="43.89951" lon="16.814">
        <ele>716.4</ele>
        <time>2018-06-10T09:24:10.000Z</time>
      </trkpt>
      <trkpt lat="43.89671" lon="16.81793">
        <ele>719.9</ele>
        <time>2018-06-10T09:25:11.000Z</time>
      </trkpt>
      <trkpt lat="43.89378" lon="16.82057">
        <ele>715.9</ele>
        <time>2018-06-10T09:26:11.000Z</time>
      </trkpt>
      <trkpt lat="43.89173" lon="16.82345">
        <ele>724.7</ele>
        <time>2018-06-10T09:27:11.000Z</time>
      </trkpt>
      <trkpt lat="43.88988" lon="16.82752">
        <ele>724.4</ele>
        <time>2018-06-10T09:28:11.000Z</time>
      </trkpt>
      <trkpt lat="43.88807" lon="16.83305">
        <ele>723.9</ele>
        <time>2018-06-10T09:29:12.000Z</time>
      </trkpt>
      <trkpt lat="43.88672" lon="16.83669">
        <ele>720.1</ele>
        <time>2018-06-10T09:30:13.000Z</time>
      </trkpt>
      <trkpt lat="43.88559" lon="16.8419">
        <ele>715.1</ele>
        <time>2018-06-10T09:31:13.000Z</time>
      </trkpt>
      <trkpt lat="43.88412" lon="16.84705">
        <ele>713.8</ele>
        <time>2018-06-10T09:32:14.000Z</time>
      </trkpt>
      <trkpt lat="43.88231" lon="16.85217">
        <ele>711.7</ele>
        <time>2018-06-10T09:33:15.000Z</time>
      </trkpt>
      <trkpt lat="43.88005" lon="16.85583">
        <ele>712.6</ele>
        <time>2018-06-10T09:34:16.000Z</time>
      </trkpt>
      <trkpt lat="43.87835" lon="16.86053">
        <ele>708.9</ele>
        <time>2018-06-10T09:35:17.000Z</time>
      </trkpt>
      <trkpt lat="43.87591" lon="16.86496">
        <ele>714.2</ele>
        <time>2018-06-10T09:36:18.000Z</time>
      </trkpt>
      <trkpt lat="43.87419" lon="16.86808">
        <ele>719.4</ele>
        <time>2018-06-10T09:37:19.000Z</time>
      </trkpt>
      <trkpt lat="43.87291" lon="16.87107">
        <ele>724.1</ele>
        <time>2018-06-10T09:38:19.000Z</time>
      </trkpt>
      <trkpt lat="43.8713" lon="16.87438">
        <ele>725.4</ele>
        <time>2018-06-10T09:39:20.000Z</time>
      </trkpt>
      <trkpt lat="43.87043" lon="16.87641">
        <ele>719.6</ele>
        <time>2018-06-10T09:40:20.000Z</time>
      </trkpt>
      <trkpt lat="43.8693" lon="16.87756">
        <ele>717.3</ele>
        <time>2018-06-10T09:59:23.000Z</time>
      </trkpt>
      <trkpt lat="43.86731" lon="16.88232">
        <ele>718.2</ele>
        <time>2018-06-10T10:00:24.000Z</time>
      </trkpt>
      <trkpt lat="43.86508" lon="16.88717">
        <ele>709.9</ele>
        <time>2018-06-10T10:01:24.000Z</time>
      </trkpt>
      <trkpt lat="43.86424" lon="16.89152">
        <ele>717.9</ele>
        <time>2018-06-10T10:02:25.000Z</time>
      </trkpt>
      <trkpt lat="43.86256" lon="16.8953">
        <ele>720.1</ele>
        <time>2018-06-10T10:03:26.000Z</time>
      </trkpt>
      <trkpt lat="43.86086" lon="16.89817">
        <ele>727.7</ele>
        <time>2018-06-10T10:04:27.000Z</time>
      </trkpt>
      <trkpt lat="43.86098" lon="16.90222">
        <ele>725.6</ele>
        <time>2018-06-10T10:05:27.000Z</time>
      </trkpt>
      <trkpt lat="43.8643" lon="16.90553">
        <ele>714.4</ele>
        <time>2018-06-10T10:06:27.000Z</time>
      </trkpt>
      <trkpt lat="43.86808" lon="16.91091">
        <ele>699</ele>
        <time>2018-06-10T10:07:28.000Z</time>
      </trkpt>
      <trkpt lat="43.86953" lon="16.91669">
        <ele>704.2</ele>
        <time>2018-06-10T10:08:29.000Z</time>
      </trkpt>
      <trkpt lat="43.87023" lon="16.9227">
        <ele>703.7</ele>
        <time>2018-06-10T10:09:30.000Z</time>
      </trkpt>
      <trkpt lat="43.8689" lon="16.92584">
        <ele>719.9</ele>
        <time>2018-06-10T10:10:31.000Z</time>
      </trkpt>
      <trkpt lat="43.86648" lon="16.92972">
        <ele>718</ele>
        <time>2018-06-10T10:11:31.000Z</time>
      </trkpt>
      <trkpt lat="43.86375" lon="16.93315">
        <ele>715.2</ele>
        <time>2018-06-10T10:12:32.000Z</time>
      </trkpt>
      <trkpt lat="43.86071" lon="16.93569">
        <ele>710.6</ele>
        <time>2018-06-10T10:13:33.000Z</time>
      </trkpt>
      <trkpt lat="43.8569" lon="16.94017">
        <ele>712.3</ele>
        <time>2018-06-10T10:14:34.000Z</time>
      </trkpt>
      <trkpt lat="43.85427" lon="16.94511">
        <ele>711.9</ele>
        <time>2018-06-10T10:15:35.000Z</time>
      </trkpt>
      <trkpt lat="43.85302" lon="16.95">
        <ele>714.2</ele>
        <time>2018-06-10T10:16:36.000Z</time>
      </trkpt>
      <trkpt lat="43.85064" lon="16.9527">
        <ele>717.4</ele>
        <time>2018-06-10T10:17:36.000Z</time>
      </trkpt>
      <trkpt lat="43.84883" lon="16.95526">
        <ele>721.8</ele>
        <time>2018-06-10T10:18:37.000Z</time>
      </trkpt>
      <trkpt lat="43.84722" lon="16.95802">
        <ele>733.9</ele>
        <time>2018-06-10T10:19:38.000Z</time>
      </trkpt>
      <trkpt lat="43.84594" lon="16.96016">
        <ele>738</ele>
        <time>2018-06-10T10:20:38.000Z</time>
      </trkpt>
      <trkpt lat="43.84435" lon="16.96393">
        <ele>736.9</ele>
        <time>2018-06-10T10:21:39.000Z</time>
      </trkpt>
      <trkpt lat="43.84223" lon="16.96919">
        <ele>718</ele>
        <time>2018-06-10T10:22:39.000Z</time>
      </trkpt>
      <trkpt lat="43.83989" lon="16.97379">
        <ele>717.2</ele>
        <time>2018-06-10T10:23:40.000Z</time>
      </trkpt>
      <trkpt lat="43.83914" lon="16.97537">
        <ele>718.7</ele>
        <time>2018-06-10T10:25:26.000Z</time>
      </trkpt>
      <trkpt lat="43.83701" lon="16.97959">
        <ele>714.4</ele>
        <time>2018-06-10T10:26:26.000Z</time>
      </trkpt>
      <trkpt lat="43.83481" lon="16.98334">
        <ele>719.5</ele>
        <time>2018-06-10T10:27:27.000Z</time>
      </trkpt>
      <trkpt lat="43.83355" lon="16.98528">
        <ele>722.2</ele>
        <time>2018-06-10T10:28:28.000Z</time>
      </trkpt>
      <trkpt lat="43.83231" lon="16.98883">
        <ele>724.4</ele>
        <time>2018-06-10T10:29:29.000Z</time>
      </trkpt>
      <trkpt lat="43.83069" lon="16.99292">
        <ele>727.1</ele>
        <time>2018-06-10T10:30:30.000Z</time>
      </trkpt>
      <trkpt lat="43.82904" lon="16.99642">
        <ele>729.1</ele>
        <time>2018-06-10T10:31:31.000Z</time>
      </trkpt>
      <trkpt lat="43.82895" lon="16.9983">
        <ele>727.8</ele>
        <time>2018-06-10T10:32:55.000Z</time>
      </trkpt>
      <trkpt lat="43.82894" lon="17.00019">
        <ele>732.3</ele>
        <time>2018-06-10T10:35:40.000Z</time>
      </trkpt>
      <trkpt lat="43.82743" lon="17.00402">
        <ele>727.8</ele>
        <time>2018-06-10T10:36:40.000Z</time>
      </trkpt>
      <trkpt lat="43.82586" lon="17.00434">
        <ele>725.7</ele>
        <time>2018-06-10T10:37:41.000Z</time>
      </trkpt>
      <trkpt lat="43.82495" lon="17.00295">
        <ele>730.5</ele>
        <time>2018-06-10T11:10:27.000Z</time>
      </trkpt>
      <trkpt lat="43.82414" lon="17.00143">
        <ele>726.6</ele>
        <time>2018-06-10T11:12:39.000Z</time>
      </trkpt>
      <trkpt lat="43.82344" lon="17.00306">
        <ele>743.4</ele>
        <time>2018-06-10T12:49:26.000Z</time>
      </trkpt>
      <trkpt lat="43.82144" lon="17.00322">
        <ele>740.6</ele>
        <time>2018-06-10T12:50:27.000Z</time>
      </trkpt>
      <trkpt lat="43.81991" lon="17.00197">
        <ele>737.6</ele>
        <time>2018-06-10T12:51:28.000Z</time>
      </trkpt>
      <trkpt lat="43.81733" lon="17.00055">
        <ele>730</ele>
        <time>2018-06-10T12:52:29.000Z</time>
      </trkpt>
      <trkpt lat="43.81359" lon="16.99861">
        <ele>719.6</ele>
        <time>2018-06-10T12:53:30.000Z</time>
      </trkpt>
      <trkpt lat="43.81098" lon="16.99544">
        <ele>720</ele>
        <time>2018-06-10T12:54:31.000Z</time>
      </trkpt>
      <trkpt lat="43.80806" lon="16.99586">
        <ele>727.4</ele>
        <time>2018-06-10T12:55:32.000Z</time>
      </trkpt>
      <trkpt lat="43.80604" lon="16.99682">
        <ele>736</ele>
        <time>2018-06-10T12:56:32.000Z</time>
      </trkpt>
      <trkpt lat="43.80434" lon="16.99721">
        <ele>742.8</ele>
        <time>2018-06-10T12:57:33.000Z</time>
      </trkpt>
      <trkpt lat="43.80273" lon="16.99776">
        <ele>745</ele>
        <time>2018-06-10T12:58:34.000Z</time>
      </trkpt>
      <trkpt lat="43.80093" lon="16.99848">
        <ele>756.4</ele>
        <time>2018-06-10T12:59:35.000Z</time>
      </trkpt>
      <trkpt lat="43.79902" lon="16.99841">
        <ele>763.6</ele>
        <time>2018-06-10T13:00:36.000Z</time>
      </trkpt>
      <trkpt lat="43.79671" lon="16.99893">
        <ele>763.8</ele>
        <time>2018-06-10T13:01:36.000Z</time>
      </trkpt>
      <trkpt lat="43.79207" lon="17.00028">
        <ele>750.2</ele>
        <time>2018-06-10T13:02:37.000Z</time>
      </trkpt>
      <trkpt lat="43.78712" lon="17.0027">
        <ele>727.8</ele>
        <time>2018-06-10T13:03:38.000Z</time>
      </trkpt>
      <trkpt lat="43.78368" lon="17.00339">
        <ele>733.3</ele>
        <time>2018-06-10T13:04:39.000Z</time>
      </trkpt>
      <trkpt lat="43.78071" lon="17.00408">
        <ele>736.3</ele>
        <time>2018-06-10T13:05:40.000Z</time>
      </trkpt>
      <trkpt lat="43.77786" lon="17.0048">
        <ele>739.1</ele>
        <time>2018-06-10T13:06:41.000Z</time>
      </trkpt>
      <trkpt lat="43.77485" lon="17.00614">
        <ele>743.3</ele>
        <time>2018-06-10T13:07:42.000Z</time>
      </trkpt>
      <trkpt lat="43.77243" lon="17.00777">
        <ele>750.7</ele>
        <time>2018-06-10T13:08:43.000Z</time>
      </trkpt>
      <trkpt lat="43.76947" lon="17.0102">
        <ele>742.2</ele>
        <time>2018-06-10T13:09:44.000Z</time>
      </trkpt>
      <trkpt lat="43.76696" lon="17.01268">
        <ele>746.6</ele>
        <time>2018-06-10T13:10:45.000Z</time>
      </trkpt>
      <trkpt lat="43.76374" lon="17.01392">
        <ele>749.3</ele>
        <time>2018-06-10T13:11:46.000Z</time>
      </trkpt>
      <trkpt lat="43.76048" lon="17.01441">
        <ele>748.5</ele>
        <time>2018-06-10T13:12:47.000Z</time>
      </trkpt>
      <trkpt lat="43.75751" lon="17.01441">
        <ele>752.4</ele>
        <time>2018-06-10T13:13:48.000Z</time>
      </trkpt>
      <trkpt lat="43.75482" lon="17.01319">
        <ele>747.8</ele>
        <time>2018-06-10T13:14:49.000Z</time>
      </trkpt>
      <trkpt lat="43.75241" lon="17.01342">
        <ele>757.1</ele>
        <time>2018-06-10T13:15:50.000Z</time>
      </trkpt>
      <trkpt lat="43.75095" lon="17.01443">
        <ele>766</ele>
        <time>2018-06-10T13:16:51.000Z</time>
      </trkpt>
      <trkpt lat="43.74968" lon="17.01364">
        <ele>778.6</ele>
        <time>2018-06-10T13:17:52.000Z</time>
      </trkpt>
      <trkpt lat="43.74819" lon="17.01258">
        <ele>788</ele>
        <time>2018-06-10T13:18:53.000Z</time>
      </trkpt>
      <trkpt lat="43.74646" lon="17.01285">
        <ele>790.3</ele>
        <time>2018-06-10T13:19:54.000Z</time>
      </trkpt>
      <trkpt lat="43.74421" lon="17.01306">
        <ele>793.8</ele>
        <time>2018-06-10T13:20:55.000Z</time>
      </trkpt>
      <trkpt lat="43.74236" lon="17.01325">
        <ele>799.8</ele>
        <time>2018-06-10T13:21:56.000Z</time>
      </trkpt>
      <trkpt lat="43.7405" lon="17.01463">
        <ele>804.4</ele>
        <time>2018-06-10T13:22:57.000Z</time>
      </trkpt>
      <trkpt lat="43.7389" lon="17.01497">
        <ele>813.9</ele>
        <time>2018-06-10T13:23:58.000Z</time>
      </trkpt>
      <trkpt lat="43.73486" lon="17.01448">
        <ele>787.8</ele>
        <time>2018-06-10T13:24:59.000Z</time>
      </trkpt>
      <trkpt lat="43.73046" lon="17.01044">
        <ele>759.2</ele>
        <time>2018-06-10T13:26:00.000Z</time>
      </trkpt>
      <trkpt lat="43.72819" lon="17.0069">
        <ele>741.1</ele>
        <time>2018-06-10T13:27:01.000Z</time>
      </trkpt>
      <trkpt lat="43.72692" lon="17.00621">
        <ele>741.7</ele>
        <time>2018-06-10T13:28:13.000Z</time>
      </trkpt>
      <trkpt lat="43.72507" lon="17.0036">
        <ele>738.6</ele>
        <time>2018-06-10T13:29:14.000Z</time>
      </trkpt>
      <trkpt lat="43.72245" lon="17.00122">
        <ele>735.5</ele>
        <time>2018-06-10T13:30:15.000Z</time>
      </trkpt>
      <trkpt lat="43.71982" lon="16.99862">
        <ele>735.5</ele>
        <time>2018-06-10T13:31:16.000Z</time>
      </trkpt>
      <trkpt lat="43.71747" lon="16.99571">
        <ele>731.8</ele>
        <time>2018-06-10T13:32:16.000Z</time>
      </trkpt>
      <trkpt lat="43.71647" lon="16.99106">
        <ele>726</ele>
        <time>2018-06-10T13:33:17.000Z</time>
      </trkpt>
      <trkpt lat="43.71585" lon="16.98692">
        <ele>723.1</ele>
        <time>2018-06-10T13:34:18.000Z</time>
      </trkpt>
      <trkpt lat="43.71509" lon="16.98231">
        <ele>718.4</ele>
        <time>2018-06-10T13:35:19.000Z</time>
      </trkpt>
      <trkpt lat="43.7154" lon="16.98414">
        <ele>720.1</ele>
        <time>2018-06-10T13:37:32.000Z</time>
      </trkpt>
      <trkpt lat="43.71592" lon="16.98776">
        <ele>720.8</ele>
        <time>2018-06-10T13:38:33.000Z</time>
      </trkpt>
      <trkpt lat="43.71643" lon="16.99124">
        <ele>721.6</ele>
        <time>2018-06-10T13:39:34.000Z</time>
      </trkpt>
      <trkpt lat="43.71697" lon="16.99499">
        <ele>727.3</ele>
        <time>2018-06-10T13:40:35.000Z</time>
      </trkpt>
      <trkpt lat="43.71871" lon="16.9976">
        <ele>730</ele>
        <time>2018-06-10T13:41:36.000Z</time>
      </trkpt>
      <trkpt lat="43.71994" lon="16.99882">
        <ele>730.5</ele>
        <time>2018-06-10T13:42:37.000Z</time>
      </trkpt>
      <trkpt lat="43.72225" lon="17.0011">
        <ele>734.1</ele>
        <time>2018-06-10T13:43:38.000Z</time>
      </trkpt>
      <trkpt lat="43.72449" lon="17.00288">
        <ele>735.3</ele>
        <time>2018-06-10T13:44:39.000Z</time>
      </trkpt>
      <trkpt lat="43.72529" lon="17.00439">
        <ele>736.5</ele>
        <time>2018-06-10T13:45:45.000Z</time>
      </trkpt>
      <trkpt lat="43.72315" lon="17.00505">
        <ele>739.4</ele>
        <time>2018-06-10T13:46:46.000Z</time>
      </trkpt>
      <trkpt lat="43.72023" lon="17.0053">
        <ele>739</ele>
        <time>2018-06-10T13:47:47.000Z</time>
      </trkpt>
      <trkpt lat="43.71784" lon="17.00723">
        <ele>739.6</ele>
        <time>2018-06-10T13:48:48.000Z</time>
      </trkpt>
      <trkpt lat="43.71507" lon="17.00873">
        <ele>731.6</ele>
        <time>2018-06-10T13:49:48.000Z</time>
      </trkpt>
      <trkpt lat="43.71295" lon="17.01243">
        <ele>728.1</ele>
        <time>2018-06-10T13:50:49.000Z</time>
      </trkpt>
      <trkpt lat="43.71027" lon="17.01257">
        <ele>736.5</ele>
        <time>2018-06-10T13:51:50.000Z</time>
      </trkpt>
      <trkpt lat="43.7084" lon="17.01456">
        <ele>735.7</ele>
        <time>2018-06-10T13:52:51.000Z</time>
      </trkpt>
      <trkpt lat="43.70605" lon="17.01683">
        <ele>737.4</ele>
        <time>2018-06-10T13:53:52.000Z</time>
      </trkpt>
      <trkpt lat="43.70427" lon="17.01956">
        <ele>739.8</ele>
        <time>2018-06-10T13:54:53.000Z</time>
      </trkpt>
      <trkpt lat="43.70411" lon="17.023">
        <ele>742</ele>
        <time>2018-06-10T13:55:54.000Z</time>
      </trkpt>
      <trkpt lat="43.70221" lon="17.02607">
        <ele>739.9</ele>
        <time>2018-06-10T13:56:54.000Z</time>
      </trkpt>
      <trkpt lat="43.69918" lon="17.02888">
        <ele>729.1</ele>
        <time>2018-06-10T13:57:55.000Z</time>
      </trkpt>
      <trkpt lat="43.69615" lon="17.03132">
        <ele>729</ele>
        <time>2018-06-10T13:58:56.000Z</time>
      </trkpt>
      <trkpt lat="43.69368" lon="17.03506">
        <ele>720.4</ele>
        <time>2018-06-10T13:59:57.000Z</time>
      </trkpt>
      <trkpt lat="43.69245" lon="17.03856">
        <ele>725</ele>
        <time>2018-06-10T14:00:58.000Z</time>
      </trkpt>
      <trkpt lat="43.69126" lon="17.04272">
        <ele>725.3</ele>
        <time>2018-06-10T14:01:59.000Z</time>
      </trkpt>
      <trkpt lat="43.69039" lon="17.04742">
        <ele>716.8</ele>
        <time>2018-06-10T14:03:00.000Z</time>
      </trkpt>
      <trkpt lat="43.68926" lon="17.05135">
        <ele>727.1</ele>
        <time>2018-06-10T14:04:01.000Z</time>
      </trkpt>
      <trkpt lat="43.68875" lon="17.05537">
        <ele>725.5</ele>
        <time>2018-06-10T14:05:01.000Z</time>
      </trkpt>
      <trkpt lat="43.68865" lon="17.05859">
        <ele>729.6</ele>
        <time>2018-06-10T14:06:02.000Z</time>
      </trkpt>
      <trkpt lat="43.68807" lon="17.06242">
        <ele>729.3</ele>
        <time>2018-06-10T14:07:03.000Z</time>
      </trkpt>
      <trkpt lat="43.68793" lon="17.06432">
        <ele>728.3</ele>
        <time>2018-06-10T14:09:21.000Z</time>
      </trkpt>
      <trkpt lat="43.68838" lon="17.06918">
        <ele>724</ele>
        <time>2018-06-10T14:10:22.000Z</time>
      </trkpt>
      <trkpt lat="43.68854" lon="17.07395">
        <ele>723.8</ele>
        <time>2018-06-10T14:11:23.000Z</time>
      </trkpt>
      <trkpt lat="43.68811" lon="17.07939">
        <ele>715.1</ele>
        <time>2018-06-10T14:12:24.000Z</time>
      </trkpt>
      <trkpt lat="43.68693" lon="17.08212">
        <ele>722.4</ele>
        <time>2018-06-10T14:13:25.000Z</time>
      </trkpt>
      <trkpt lat="43.68387" lon="17.08378">
        <ele>715.4</ele>
        <time>2018-06-10T14:14:25.000Z</time>
      </trkpt>
      <trkpt lat="43.68254" lon="17.08409">
        <ele>722.9</ele>
        <time>2018-06-10T14:18:12.000Z</time>
      </trkpt>
    </trkseg>
  </trk>
</gpx>